createdAt,value
2024-03-22T00:00:07.526Z,8.03
2024-03-22T00:05:14.904Z,8.00
2024-03-22T00:10:20.680Z,8.02
2024-03-22T00:15:26.274Z,8.02
2024-03-22T00:20:35.130Z,8.03
2024-03-22T00:25:39.123Z,8.08
2024-03-22T00:30:45.192Z,8.11
2024-03-22T00:35:50.762Z,8.14
2024-03-22T00:40:56.631Z,8.14
2024-03-22T00:46:04.034Z,8.16
2024-03-22T00:51:09.702Z,8.15
2024-03-22T00:56:15.363Z,8.10
2024-03-22T01:01:21.041Z,8.10
2024-03-22T01:06:28.343Z,8.10
2024-03-22T01:11:33.920Z,8.09
2024-03-22T01:16:41.112Z,8.13
2024-03-22T01:21:46.677Z,8.11
2024-03-22T01:26:52.241Z,8.06
2024-03-22T01:31:57.818Z,7.99
2024-03-22T01:37:04.119Z,7.96
2024-03-22T01:42:09.760Z,7.94
2024-03-22T01:47:15.536Z,7.99
2024-03-22T01:52:21.179Z,8.05
2024-03-22T01:57:26.956Z,8.07
2024-03-22T02:02:32.636Z,8.09
2024-03-22T02:07:38.386Z,8.11
2024-03-22T02:12:44.162Z,8.11
2024-03-22T02:17:49.827Z,8.14
2024-03-22T02:22:55.811Z,8.12
2024-03-22T02:28:01.479Z,8.12
2024-03-22T02:33:07.554Z,8.15
2024-03-22T02:38:13.221Z,8.17
2024-03-22T02:43:20.374Z,8.10
2024-03-22T02:48:26.500Z,8.08
2024-03-22T02:53:32.158Z,8.07
2024-03-22T02:58:37.953Z,8.04
2024-03-22T03:03:43.734Z,8.04
2024-03-22T03:08:49.573Z,8.10
2024-03-22T03:13:55.389Z,8.17
2024-03-22T03:19:02.740Z,8.19
2024-03-22T03:24:10.164Z,8.20
2024-03-22T03:29:16.029Z,8.18
2024-03-22T03:34:22.000Z,8.23
2024-03-22T03:39:27.683Z,8.29
2024-03-22T03:44:33.339Z,8.34
2024-03-22T03:49:39.005Z,8.35
2024-03-22T03:54:44.692Z,8.38
2024-03-22T03:59:50.441Z,8.38
2024-03-22T04:04:56.515Z,8.43
2024-03-22T04:10:02.190Z,8.46
2024-03-22T04:15:09.002Z,8.42
2024-03-22T04:20:15.129Z,8.47
2024-03-22T04:25:21.234Z,8.49
2024-03-22T04:30:27.315Z,8.48
2024-03-22T04:35:32.984Z,8.56
2024-03-22T04:40:38.542Z,8.57
2024-03-22T04:45:45.806Z,8.61
2024-03-22T04:50:52.753Z,8.64
2024-03-22T04:55:58.338Z,8.65
2024-03-22T05:01:03.976Z,8.67
2024-03-22T05:06:09.747Z,8.71
2024-03-22T05:11:15.474Z,8.72
2024-03-22T05:16:21.388Z,8.79
2024-03-22T05:21:27.056Z,8.84
2024-03-22T05:26:34.261Z,8.89
2024-03-22T05:31:42.894Z,8.93
2024-03-22T05:36:49.057Z,8.97
2024-03-22T05:41:55.475Z,9.09
2024-03-22T05:47:01.636Z,9.15
2024-03-22T05:52:07.495Z,9.25
2024-03-22T05:57:13.691Z,9.39
2024-03-22T06:02:19.504Z,9.53
2024-03-22T06:07:25.133Z,9.70
2024-03-22T06:12:30.794Z,9.85
2024-03-22T06:17:36.418Z,9.83
2024-03-22T06:22:42.198Z,9.98
2024-03-22T06:27:47.802Z,10.01
2024-03-22T06:32:53.368Z,10.13
2024-03-22T06:37:58.934Z,10.19
2024-03-22T06:43:04.701Z,10.30
2024-03-22T06:48:10.474Z,10.52
2024-03-22T06:53:16.030Z,10.82
2024-03-22T06:58:21.700Z,11.08
2024-03-22T07:03:27.275Z,11.25
2024-03-22T07:08:33.236Z,11.42
2024-03-22T07:13:38.812Z,11.65
2024-03-22T07:18:44.801Z,11.71
2024-03-22T07:23:50.472Z,11.58
2024-03-22T07:28:56.214Z,11.73
2024-03-22T07:34:01.882Z,11.77
2024-03-22T07:39:10.978Z,11.97
2024-03-22T07:44:18.544Z,12.25
2024-03-22T07:49:24.108Z,12.30
2024-03-22T07:54:29.662Z,12.35
2024-03-22T07:59:35.953Z,12.52
2024-03-22T08:04:41.716Z,12.52
2024-03-22T08:09:47.380Z,12.39
2024-03-22T08:14:53.490Z,12.36
2024-03-22T08:19:59.333Z,12.20
2024-03-22T08:25:05.680Z,12.12
2024-03-22T08:30:12.732Z,11.99
2024-03-22T08:35:18.489Z,12.12
2024-03-22T08:40:24.479Z,11.96
2024-03-22T08:45:30.234Z,11.87
2024-03-22T08:50:36.307Z,11.81
2024-03-22T08:55:49.855Z,11.87
2024-03-22T09:00:57.475Z,12.15
2024-03-22T09:06:08.837Z,12.98
2024-03-22T09:11:11.323Z,13.88
2024-03-22T09:16:17.273Z,14.49
2024-03-22T09:21:23.210Z,14.80
2024-03-22T09:26:28.893Z,15.01
2024-03-22T09:31:34.702Z,14.83
2024-03-22T09:36:40.319Z,14.82
2024-03-22T09:41:49.719Z,15.07
2024-03-22T09:46:54.933Z,15.20
2024-03-22T09:52:00.932Z,15.38
2024-03-22T09:57:08.539Z,15.41
2024-03-22T10:02:15.298Z,15.30
2024-03-22T10:07:21.038Z,15.11
2024-03-22T10:12:27.172Z,15.07
2024-03-22T10:17:32.957Z,15.15
2024-03-22T10:22:38.707Z,15.49
2024-03-22T10:27:44.409Z,15.64
2024-03-22T10:32:54.077Z,15.50
2024-03-22T10:37:59.716Z,15.71
2024-03-22T10:43:05.767Z,15.61
2024-03-22T10:48:12.805Z,15.91
2024-03-22T10:53:25.731Z,15.79
2024-03-22T10:58:31.986Z,15.79
2024-03-22T11:03:38.258Z,16.32
2024-03-22T11:08:43.931Z,16.95
2024-03-22T11:13:50.520Z,16.69
2024-03-22T11:18:56.828Z,16.79
2024-03-22T11:24:05.896Z,17.50
2024-03-22T11:29:11.726Z,17.85
2024-03-22T11:34:17.715Z,18.03
2024-03-22T11:39:24.713Z,18.34
2024-03-22T11:44:31.028Z,18.40
2024-03-22T11:49:37.151Z,18.36
2024-03-22T11:54:42.923Z,17.53
2024-03-22T12:00:02.566Z,16.71
2024-03-22T12:04:55.980Z,16.41
2024-03-22T12:10:01.661Z,16.21
2024-03-22T12:15:08.184Z,16.26
2024-03-22T12:20:15.399Z,16.51
2024-03-22T12:25:21.018Z,16.51
2024-03-22T12:30:27.527Z,16.84
2024-03-22T12:35:33.998Z,17.68
2024-03-22T12:40:40.631Z,18.21
2024-03-22T12:45:46.348Z,18.44
2024-03-22T12:50:52.318Z,18.31
2024-03-22T12:55:57.914Z,18.26
2024-03-22T13:01:04.486Z,18.55
2024-03-22T13:06:10.248Z,18.53
2024-03-22T13:11:16.016Z,17.88
2024-03-22T13:16:21.582Z,17.77
2024-03-22T13:21:28.389Z,17.76
2024-03-22T13:26:34.156Z,17.71
2024-03-22T13:31:43.257Z,17.01
2024-03-22T13:36:48.253Z,16.23
2024-03-22T13:41:53.926Z,15.72
2024-03-22T13:46:59.473Z,15.25
2024-03-22T13:52:09.594Z,14.80
2024-03-22T13:57:15.637Z,14.51
2024-03-22T14:02:21.515Z,14.36
2024-03-22T14:07:28.708Z,14.21
2024-03-22T14:12:34.388Z,14.16
2024-03-22T14:17:40.059Z,14.17
2024-03-22T14:22:45.882Z,14.19
2024-03-22T14:27:53.449Z,14.24
2024-03-22T14:32:59.294Z,14.24
2024-03-22T14:38:05.223Z,14.30
2024-03-22T14:43:12.707Z,14.21
2024-03-22T14:48:18.383Z,14.01
2024-03-22T14:53:24.617Z,13.91
2024-03-22T14:58:31.833Z,13.72
2024-03-22T15:03:37.905Z,13.64
2024-03-22T15:08:43.572Z,13.55
2024-03-22T15:13:49.661Z,13.50
2024-03-22T15:18:55.305Z,13.35
2024-03-22T15:24:00.997Z,13.23
2024-03-22T15:29:06.862Z,13.11
2024-03-22T15:34:12.644Z,13.14
2024-03-22T15:39:19.491Z,13.10
2024-03-22T15:44:27.436Z,13.07
2024-03-22T15:49:33.008Z,12.98
2024-03-22T15:54:39.072Z,12.92
2024-03-22T15:59:45.610Z,12.82
2024-03-22T16:04:52.867Z,12.84
2024-03-22T16:09:58.646Z,12.77
2024-03-22T16:15:06.063Z,12.73
2024-03-22T16:20:13.219Z,12.65
2024-03-22T16:25:18.861Z,12.56
2024-03-22T16:30:24.520Z,12.46
2024-03-22T16:35:30.357Z,12.42
2024-03-22T16:40:36.037Z,12.38
2024-03-22T16:45:41.804Z,12.32
2024-03-22T16:50:48.015Z,12.25
2024-03-22T16:55:53.680Z,12.15
2024-03-22T17:01:10.083Z,12.12
2024-03-22T17:06:21.504Z,12.04
2024-03-22T17:11:23.440Z,11.98
2024-03-22T17:16:29.108Z,11.93
2024-03-22T17:21:34.779Z,11.87
2024-03-22T17:26:43.619Z,11.83
2024-03-22T17:31:49.439Z,11.77
2024-03-22T17:36:56.292Z,11.74
2024-03-22T17:42:04.329Z,11.72
2024-03-22T17:47:10.191Z,11.69
2024-03-22T17:52:17.067Z,11.65
2024-03-22T17:57:25.792Z,11.63
2024-03-22T18:02:31.884Z,11.66
2024-03-22T18:07:37.708Z,11.64
2024-03-22T18:12:43.381Z,11.67
2024-03-22T18:17:49.372Z,11.68
2024-03-22T18:22:56.497Z,11.64
2024-03-22T18:28:02.483Z,11.63
2024-03-22T18:33:08.276Z,11.63
2024-03-22T18:38:14.837Z,11.58
2024-03-22T18:43:20.604Z,11.58
2024-03-22T18:48:26.813Z,11.55
2024-03-22T18:53:32.450Z,11.55
2024-03-22T18:58:38.216Z,11.58
2024-03-22T19:03:44.005Z,11.57
2024-03-22T19:08:49.764Z,11.53
2024-03-22T19:13:55.835Z,11.50
2024-03-22T19:19:01.617Z,11.50
2024-03-22T19:24:07.906Z,11.48
2024-03-22T19:29:15.491Z,11.49
2024-03-22T19:34:21.275Z,11.51
2024-03-22T19:39:27.247Z,11.53
2024-03-22T19:44:33.429Z,11.53
2024-03-22T19:49:39.195Z,11.50
2024-03-22T19:54:44.969Z,11.49
2024-03-22T19:59:52.207Z,11.47
2024-03-22T20:04:58.064Z,11.46
2024-03-22T20:10:04.608Z,11.37
2024-03-22T20:15:11.896Z,11.36
2024-03-22T20:20:18.048Z,11.35
2024-03-22T20:25:24.808Z,11.33
2024-03-22T20:30:32.005Z,11.31
2024-03-22T20:35:37.619Z,11.28
2024-03-22T20:40:44.017Z,11.25
2024-03-22T20:45:50.339Z,11.25
2024-03-22T20:50:56.725Z,11.24
2024-03-22T20:56:03.201Z,11.23
2024-03-22T21:01:10.006Z,11.21
2024-03-22T21:06:16.430Z,11.20
2024-03-22T21:11:22.876Z,11.18
2024-03-22T21:16:29.251Z,11.18
2024-03-22T21:21:35.667Z,11.14
2024-03-22T21:26:42.202Z,11.13
2024-03-22T21:31:48.713Z,11.09
2024-03-22T21:36:56.738Z,11.08
2024-03-22T21:42:03.087Z,11.07
2024-03-22T21:47:09.713Z,10.97
2024-03-22T21:52:16.313Z,10.90
2024-03-22T21:57:22.751Z,10.80
2024-03-22T22:02:29.091Z,10.73
2024-03-22T22:07:35.553Z,10.62
2024-03-22T22:12:43.087Z,10.54
2024-03-22T22:17:51.093Z,10.50
2024-03-22T22:22:57.485Z,10.49
2024-03-22T22:28:03.994Z,10.45
2024-03-22T22:33:11.874Z,10.41
2024-03-22T22:38:18.253Z,10.40
2024-03-22T22:43:24.658Z,10.33
2024-03-22T22:48:31.136Z,10.20
2024-03-22T22:53:37.506Z,10.15
2024-03-22T22:58:43.994Z,10.10
2024-03-22T23:03:50.388Z,10.03
2024-03-22T23:08:56.765Z,9.95
2024-03-22T23:14:02.947Z,9.86
2024-03-22T23:19:09.326Z,9.84
2024-03-22T23:24:15.736Z,9.84
2024-03-22T23:29:22.912Z,9.81
2024-03-22T23:34:29.352Z,9.81
2024-03-22T23:39:35.894Z,9.80
2024-03-22T23:44:42.272Z,9.78
2024-03-22T23:49:48.655Z,9.76
2024-03-22T23:54:56.831Z,9.71
